createdAt,value
2023-03-08T00:04:15.841Z,4.80
2023-03-08T00:09:30.569Z,4.60
2023-03-08T00:14:33.838Z,5.80
2023-03-08T00:20:01.746Z,5.40
2023-03-08T00:25:10.026Z,6.90
2023-03-08T00:30:17.972Z,5.40
2023-03-08T00:35:24.527Z,5.60
2023-03-08T00:40:27.923Z,4.50
2023-03-08T00:45:31.151Z,4.10
2023-03-08T00:50:35.134Z,4.30
2023-03-08T00:55:38.420Z,4.40
2023-03-08T01:00:42.140Z,9.60
2023-03-08T01:05:48.383Z,9.90
2023-03-08T01:11:16.931Z,5.40
2023-03-08T01:16:26.178Z,4.20
2023-03-08T01:21:35.320Z,4.90
2023-03-08T01:26:39.184Z,2.50
2023-03-08T01:31:42.766Z,4.10
2023-03-08T01:36:46.740Z,3.10
2023-03-08T01:41:50.198Z,4.50
2023-03-08T01:46:54.207Z,3.30
2023-03-08T01:52:13.920Z,1.90
2023-03-08T01:57:47.266Z,2.90
2023-03-08T02:03:06.949Z,4.60
2023-03-08T02:13:40.240Z,3.20
2023-03-08T02:19:17.921Z,3.50
2023-03-08T02:24:34.143Z,2.70
2023-03-08T02:30:08.292Z,4.30
2023-03-08T02:35:11.557Z,3.60
2023-03-08T02:40:17.113Z,2.50
2023-03-08T02:45:21.855Z,2.50
2023-03-08T02:50:25.286Z,3.50
2023-03-08T02:55:28.705Z,4.40
2023-03-08T03:01:18.728Z,3.00
2023-03-08T03:06:42.315Z,3.10
2023-03-08T03:12:18.199Z,5.40
2023-03-08T03:18:12.114Z,4.80
2023-03-08T03:23:56.100Z,4.30
2023-03-08T03:29:28.097Z,5.10
2023-03-08T03:34:38.459Z,4.40
2023-03-08T03:40:32.008Z,4.30
2023-03-08T03:45:55.845Z,5.30
2023-03-08T03:51:21.074Z,5.50
2023-03-08T03:56:28.371Z,6.70
2023-03-08T04:01:34.852Z,6.30
2023-03-08T04:07:10.650Z,7.80
2023-03-08T04:12:36.989Z,6.90
2023-03-08T04:17:43.732Z,7.60
2023-03-08T04:22:50.134Z,8.10
2023-03-08T04:27:59.081Z,10.40
2023-03-08T04:33:22.182Z,10.50
2023-03-08T04:38:26.055Z,10.50
2023-03-08T04:43:36.117Z,10.50
2023-03-08T04:48:40.136Z,9.50
2023-03-08T04:53:45.692Z,10.00
2023-03-08T04:58:51.765Z,10.30
2023-03-08T05:03:56.280Z,10.70
2023-03-08T05:09:06.031Z,11.80
2023-03-08T05:14:10.108Z,11.20
2023-03-08T05:19:23.597Z,13.40
2023-03-08T05:24:30.545Z,12.60
2023-03-08T05:29:37.268Z,10.80
2023-03-08T05:34:42.115Z,11.60
2023-03-08T05:40:29.264Z,12.40
2023-03-08T05:45:46.754Z,14.90
2023-03-08T05:51:00.590Z,14.80
2023-03-08T05:56:25.271Z,13.70
2023-03-08T06:01:48.985Z,13.70
2023-03-08T06:07:11.177Z,11.50
2023-03-08T06:12:18.431Z,13.50
2023-03-08T06:17:30.031Z,12.70
2023-03-08T06:22:33.834Z,12.30
2023-03-08T06:27:43.043Z,12.00
2023-03-08T06:32:52.942Z,9.70
2023-03-08T06:37:56.961Z,12.70
2023-03-08T06:43:03.306Z,10.80
2023-03-08T06:48:09.557Z,11.40
2023-03-08T06:53:21.545Z,16.40
2023-03-08T06:58:31.779Z,10.30
2023-03-08T07:03:36.246Z,11.20
2023-03-08T07:08:39.995Z,9.70
2023-03-08T07:13:43.639Z,10.80
2023-03-08T07:18:47.479Z,12.40
2023-03-08T07:23:52.808Z,7.90
2023-03-08T07:28:57.934Z,8.60
2023-03-08T07:34:01.248Z,10.60
2023-03-08T07:39:04.582Z,10.10
2023-03-08T07:44:08.037Z,10.30
2023-03-08T07:49:11.919Z,9.90
2023-03-08T07:54:15.649Z,10.10
2023-03-08T07:59:19.770Z,10.90
2023-03-08T08:04:23.477Z,11.20
2023-03-08T08:09:27.476Z,10.60
2023-03-08T08:14:31.194Z,10.30
2023-03-08T08:19:34.793Z,10.30
2023-03-08T08:24:51.449Z,11.20
2023-03-08T08:29:55.209Z,11.50
2023-03-08T08:35:01.379Z,10.30
2023-03-08T08:40:45.316Z,9.90
2023-03-08T08:45:55.651Z,12.10
2023-03-08T08:51:05.890Z,9.60
2023-03-08T08:57:03.382Z,11.60
2023-03-08T09:02:27.231Z,9.00
2023-03-08T09:07:40.955Z,10.50
2023-03-08T09:12:44.450Z,8.80
2023-03-08T09:17:48.356Z,7.20
2023-03-08T09:22:51.789Z,8.20
2023-03-08T09:28:15.618Z,8.60
2023-03-08T09:33:19.084Z,7.40
2023-03-08T09:38:22.828Z,7.40
2023-03-08T09:43:47.904Z,8.30
2023-03-08T09:48:53.036Z,11.30
2023-03-08T09:54:04.978Z,8.50
2023-03-08T09:59:35.307Z,7.00
2023-03-08T10:05:13.366Z,9.20
2023-03-08T10:10:28.327Z,8.00
2023-03-08T10:15:36.554Z,8.30
2023-03-08T10:20:43.053Z,9.00
2023-03-08T10:25:48.925Z,8.20
2023-03-08T10:31:19.606Z,6.90
2023-03-08T10:36:36.542Z,13.10
2023-03-08T10:41:51.605Z,11.60
2023-03-08T10:46:58.619Z,8.80
2023-03-08T10:52:05.312Z,8.60
2023-03-08T10:57:50.291Z,11.40
2023-03-08T11:03:32.842Z,8.40
2023-03-08T11:09:28.154Z,10.70
2023-03-08T11:14:46.082Z,10.30
2023-03-08T11:20:09.986Z,10.00
2023-03-08T11:26:01.036Z,10.30
2023-03-08T11:31:19.553Z,8.30
2023-03-08T11:36:38.660Z,10.90
2023-03-08T11:42:14.450Z,9.30
2023-03-08T11:48:04.858Z,11.20
2023-03-08T11:53:08.598Z,7.80
2023-03-08T11:58:33.330Z,9.90
2023-03-08T12:03:45.829Z,8.20
2023-03-08T12:08:59.247Z,7.30
2023-03-08T12:14:18.700Z,7.80
2023-03-08T12:19:45.659Z,5.70
2023-03-08T12:25:27.771Z,7.60
2023-03-08T12:30:39.907Z,7.70
2023-03-08T12:36:25.216Z,7.40
2023-03-08T12:41:31.948Z,8.70
2023-03-08T12:47:02.242Z,9.60
2023-03-08T12:52:30.747Z,10.80
2023-03-08T12:57:43.055Z,10.90
2023-03-08T13:02:47.019Z,6.60
2023-03-08T13:07:56.011Z,8.00
2023-03-08T13:13:44.403Z,8.70
2023-03-08T13:19:00.980Z,7.40
2023-03-08T13:24:13.406Z,8.70
2023-03-08T13:29:19.689Z,12.10
2023-03-08T13:34:41.983Z,9.90
2023-03-08T13:40:17.153Z,13.20
2023-03-08T13:45:47.973Z,9.10
2023-03-08T13:51:03.373Z,11.50
2023-03-08T13:56:08.386Z,10.50
2023-03-08T14:01:23.629Z,9.40
2023-03-08T14:06:30.990Z,13.00
2023-03-08T14:11:40.187Z,11.30
2023-03-08T14:16:46.872Z,13.00
2023-03-08T14:22:32.255Z,16.60
2023-03-08T14:27:45.517Z,7.60
2023-03-08T14:33:03.879Z,11.80
2023-03-08T14:38:37.657Z,10.80
2023-03-08T14:44:09.426Z,9.90
2023-03-08T14:49:38.435Z,9.80
2023-03-08T14:54:55.574Z,11.80
2023-03-08T15:00:14.207Z,9.70
2023-03-08T15:05:29.322Z,8.80
2023-03-08T15:15:46.279Z,9.70
2023-03-08T15:20:52.270Z,10.50
2023-03-08T15:25:59.359Z,8.80
2023-03-08T15:31:05.762Z,12.80
2023-03-08T15:36:21.610Z,9.50
2023-03-08T15:41:25.239Z,10.50
2023-03-08T15:46:30.330Z,9.40
2023-03-08T15:51:35.948Z,11.30
2023-03-08T15:56:39.618Z,8.00
2023-03-08T16:01:46.103Z,9.80
2023-03-08T16:06:49.653Z,13.50
2023-03-08T16:11:53.183Z,15.20
2023-03-08T16:16:56.657Z,12.80
2023-03-08T16:22:01.133Z,13.30
2023-03-08T16:27:17.346Z,11.90
2023-03-08T16:32:21.490Z,12.70
2023-03-08T16:37:28.792Z,10.90
2023-03-08T16:42:32.186Z,13.10
2023-03-08T16:47:55.949Z,12.00
2023-03-08T16:53:02.556Z,12.40
2023-03-08T16:58:09.220Z,11.80
2023-03-08T17:03:16.120Z,15.60
2023-03-08T17:08:22.456Z,17.30
2023-03-08T17:13:38.502Z,17.20
2023-03-08T17:19:01.660Z,23.10
2023-03-08T17:24:21.528Z,15.50
2023-03-08T17:29:25.752Z,15.60
2023-03-08T17:34:52.701Z,17.00
2023-03-08T17:40:00.379Z,15.40
2023-03-08T17:45:08.046Z,15.50
2023-03-08T17:50:50.088Z,16.60
2023-03-08T17:55:53.885Z,26.30
2023-03-08T18:01:18.240Z,34.60
2023-03-08T18:06:53.540Z,69.80
2023-03-08T18:12:21.023Z,78.90
2023-03-08T18:17:48.236Z,53.00
2023-03-08T18:24:03.476Z,38.30
2023-03-08T18:29:28.376Z,23.90
2023-03-08T18:34:41.596Z,26.20
2023-03-08T18:39:55.679Z,34.90
2023-03-08T18:45:08.127Z,29.20
2023-03-08T18:50:15.446Z,23.30
2023-03-08T18:55:25.080Z,30.90
2023-03-08T19:00:57.838Z,22.50
2023-03-08T19:06:13.070Z,21.70
2023-03-08T19:11:25.860Z,22.50
2023-03-08T19:17:13.340Z,23.80
2023-03-08T19:22:18.251Z,22.70
2023-03-08T19:27:34.968Z,22.80
2023-03-08T19:32:40.985Z,21.90
2023-03-08T19:37:48.369Z,18.00
2023-03-08T19:42:52.346Z,20.30
2023-03-08T19:47:55.849Z,22.70
2023-03-08T19:52:59.503Z,22.70
2023-03-08T19:58:02.895Z,24.80
2023-03-08T20:03:09.038Z,27.70
2023-03-08T20:08:12.941Z,33.80
2023-03-08T20:13:16.329Z,34.80
2023-03-08T20:18:23.145Z,37.10
2023-03-08T20:23:36.841Z,37.60
2023-03-08T20:28:40.381Z,35.90
2023-03-08T20:33:45.449Z,35.70
2023-03-08T20:38:48.892Z,31.00
2023-03-08T20:43:55.644Z,31.30
2023-03-08T20:49:11.248Z,29.30
2023-03-08T20:54:34.862Z,33.00
2023-03-08T20:59:38.173Z,38.70
2023-03-08T21:04:41.378Z,34.30
2023-03-08T21:10:15.222Z,28.20
2023-03-08T21:15:18.682Z,27.10
2023-03-08T21:20:33.454Z,19.70
2023-03-08T21:25:59.322Z,15.70
2023-03-08T21:31:13.218Z,15.70
2023-03-08T21:36:25.690Z,17.50
2023-03-08T21:41:47.171Z,19.70
2023-03-08T21:46:55.347Z,18.40
2023-03-08T21:52:49.869Z,24.00
2023-03-08T22:03:40.952Z,19.40
2023-03-08T22:08:47.049Z,17.60
2023-03-08T22:14:33.989Z,17.50
2023-03-08T22:19:58.840Z,24.80
2023-03-08T22:25:14.002Z,22.10
2023-03-08T22:30:17.633Z,19.80
2023-03-08T22:35:41.552Z,20.00
2023-03-08T22:40:45.464Z,17.90
2023-03-08T22:45:51.207Z,15.10
2023-03-08T22:51:10.274Z,11.60
2023-03-08T22:56:35.439Z,13.00
2023-03-08T23:02:11.714Z,13.10
2023-03-08T23:07:17.670Z,12.90
2023-03-08T23:12:44.675Z,14.80
2023-03-08T23:17:48.186Z,14.00
2023-03-08T23:22:54.852Z,20.50
2023-03-08T23:28:22.415Z,20.30
2023-03-08T23:33:46.434Z,18.50
2023-03-08T23:39:53.340Z,19.00
2023-03-08T23:44:56.948Z,16.80
2023-03-08T23:50:02.755Z,16.00
2023-03-08T23:55:33.013Z,14.70
